• Join FlightAware (Why Join?)
  • Login
  • US Flag 
09:05AM EDT


 

Airport Tracker/Info


-or-


 

Live Flight TrackerFlight Track Log ✈ UAL4108 ✈ 10-Apr-2013 ✈ KLIT - KIAH

Flight Track Log - Related Links

Times and Time Zones

All times are in EDT time to prevent confusion due to time zone crossing. See the UAL4108 flight status page for this flight to view local times or setup timezone preferences in your user account.

Time Position Orientation Groundspeed Altitude Reporting Facility
EDT Latitude Longitude Course Direction KTS MPH feet Rate Location/Type
07:10AM 34.7156 -92.2494 193° South 174 200 700  Level Memphis Center
07:10AM 34.7050 -92.2619 224° Southwest 188 216 1,500 2,640 Climbing Memphis Center
07:11AM 34.6467 -92.2631 181° South 208 239 4,200 2,880 Climbing Memphis Center
07:12AM 34.6217 -92.2600 174° South 200 230 5,900 2,520 Climbing Memphis Center
07:13AM 34.5589 -92.2561 177° South 213 245 8,000 2,280 Climbing Memphis Center
07:14AM 34.4298 -92.4333 190° South  Level Estimated
07:14AM 34.4964 -92.2622 185° South 220 253 10,500  Level Memphis Center
07:15AM 34.3549 -92.4852 193° South  Level Estimated
07:15AM 34.4192 -92.2631 181° South 248 285 11,600  Level Memphis Center
07:16AM 34.3314 -92.2661 182° South 287 330 12,700 1,260 Climbing Memphis Center
07:17AM 34.2375 -92.2692 182° South 322 371 14,200 1,500 Climbing Memphis Center
07:18AM 34.1433 -92.2794 185° South 338 389 15,800 1,500 Climbing Memphis Center
07:19AM 34.0575 -92.3028 193° South 351 404 17,300 1,560 Climbing Memphis Center
07:20AM 33.9611 -92.3206 189° South 351 404 19,000 1,620 Climbing Memphis Center
07:21AM 33.8608 -92.3358 187° South 356 410 20,600 1,560 Climbing Memphis Center
07:21AM 33.8267 -92.3431 190° South 340 391 21,200 1,260 Climbing Fort Worth Center
07:22AM 33.7253 -92.3589 187° South 346 398 22,400 1,080 Climbing Fort Worth Center
07:23AM 33.6197 -92.3800 189° South 365 420 23,400 960 Climbing Fort Worth Center
07:24AM 33.5139 -92.3986 188° South 384 442 24,400 1,020 Climbing Fort Worth Center
07:25AM 33.4064 -92.4194 189° South 391 450 25,500 1,020 Climbing Fort Worth Center
07:26AM 33.2964 -92.4383 188° South 391 450 26,500 960 Climbing Fort Worth Center
07:27AM 33.1886 -92.4567 188° South 396 456 27,500 720 Climbing Fort Worth Center
07:28AM 33.0789 -92.4778 189° South 402 463 28,000 240 Climbing Fort Worth Center
07:29AM 32.9567 -92.4992 188° South 407 468 28,000  Level Fort Worth Center
07:31AM 32.7708 -92.5339 189° South 430 495 28,000  Level Houston Center
07:32AM 32.6511 -92.5556 189° South 433 498 28,000  Level Houston Center
07:33AM 32.5492 -92.5750 189° South 434 499 28,000  Level Houston Center
07:34AM 32.4289 -92.5961 188° South 436 502 28,000  Level Houston Center
07:35AM 32.2847 -92.6214 188° South 436 502 28,000  Level Houston Center
07:36AM 32.1656 -92.6442 189° South 435 501 28,000  Level Houston Center
07:37AM 32.0450 -92.6644 188° South 438 504 28,000  Level Houston Center
07:38AM 31.9358 -92.7136 201° Southwest 429 494 28,000  Level Houston Center
07:39AM 31.8439 -92.8033 220° Southwest 429 494 28,000  Level Houston Center
07:40AM 31.7522 -92.8911 219° Southwest 426 490 28,000  Level Houston Center
07:41AM 31.6608 -92.9803 220° Southwest 427 491 28,000  Level Houston Center
07:42AM 31.5683 -93.0672 219° Southwest 428 493 28,000  Level Houston Center
07:43AM 31.4764 -93.1561 220° Southwest 429 494 28,000  Level Houston Center
07:44AM 31.3842 -93.2439 219° Southwest 428 493 28,000  Level Houston Center
07:45AM 31.2831 -93.3411 219° Southwest 429 494 28,000  Level Houston Center
07:46AM 31.1828 -93.4369 219° Southwest 428 493 28,000  Level Houston Center
07:47AM 31.0914 -93.5239 219° Southwest 425 489 28,000  Level Houston Center
07:48AM 30.9994 -93.6100 219° Southwest 427 491 28,000  Level Houston Center
07:49AM 30.9083 -93.6981 220° Southwest 428 493 28,000 -600 Level Houston Center
07:50AM 30.8164 -93.7842 219° Southwest 428 493 26,800 -1,680 Descending Houston Center
07:51AM 30.7217 -93.8739 219° Southwest 439 505 24,600 -2,280 Descending Houston Center
07:52AM 30.6300 -93.9606 219° Southwest 433 498 22,200 -2,340 Descending Houston Center
07:53AM 30.5419 -94.0433 219° Southwest 424 488 19,900 -2,460 Descending Houston Center
07:54AM 30.4414 -94.1381 219° Southwest 402 463 17,200 -2,460 Descending Houston Center
07:55AM 30.3808 -94.1925 218° Southwest 378 435 15,700 -2,220 Descending Houston Center
07:55AM 30.3597 -94.2131 220° Southwest 384 442 15,000 -2,220 Descending Houston Center
07:56AM 30.2847 -94.2828 219° Southwest 356 410 13,000 -1,800 Descending Houston Center
07:57AM 30.2347 -94.3283 218° Southwest 340 391 12,100 -900 Descending Houston Center
07:57AM 30.2092 -94.3542 221° Southwest 349 402 12,000 -600 Descending Houston Center
07:58AM 30.1875 -94.4264 251° West 360 414 11,500 -840 Descending Houston Center
07:58AM 30.1825 -94.4581 260° West 353 406 11,200 -1,020 Descending Houston Center
07:59AM 30.1669 -94.5378 257° West 355 409 10,500 -900 Descending Houston Center
07:59AM 30.1639 -94.5725 264° West 356 410 10,300 -540 Descending Houston Center
08:00AM 30.1503 -94.6464 258° West 337 388 10,000 -300 Descending Houston Center
08:00AM 30.1456 -94.6761 260° West 336 387 10,000 -540 Level Houston Center
08:01AM 30.1297 -94.7603 258° West 259 298 9,300 -1,080 Descending Houston Center
08:02AM 30.1186 -94.8197 258° West 257 296 8,300 -1,140 Descending Houston Center
08:02AM 30.1164 -94.8431 264° West 262 302 8,000 -1,440 Descending Houston Center
08:03AM 30.1053 -94.9228 261° West 278 320 6,600 -1,680 Descending Houston Center
08:03AM 30.1039 -94.9478 266° West 275 316 6,300 -600 Descending Houston Center
08:04AM 30.1064 -95.0242 272° West 263 303 6,000 -180 Descending Houston Center
08:05AM 30.1050 -95.0992 269° West 265 305 6,000 60 Level Houston Center
08:05AM 30.1064 -95.1178 275° West 265 305 6,100  Climbing Houston Center
08:06AM 30.1056 -95.1958 269° West 269 310 6,000 -120 Descending Houston Center
08:07AM 30.1061 -95.2681 271° West 268 308 6,000 60 Level Houston Center
08:07AM 30.1069 -95.2894 273° West 269 310 6,100  Climbing Houston Center
08:08AM 30.1069 -95.3478 270° West 270 311 6,000  Descending Houston Center
08:08AM 30.1078 -95.3750 272° West 268 308 6,100  Climbing Houston Center
08:09AM 30.1067 -95.4372 269° West 231 266 6,000 -120 Descending Houston Center
08:10AM 30.1078 -95.4542 274° West 255 293 6,000 -540 Level Houston Center
08:10AM 30.1072 -95.5119 269° West 230 265 5,500 -840 Descending Houston Center
08:11AM 30.1081 -95.5269 274° West 235 270 5,200 -1,320 Descending Houston Center
08:11AM 30.1056 -95.5869 267° West 228 262 4,200 -1,200 Descending Houston Center
08:12AM 30.0933 -95.6044 231° Southwest 221 254 4,000 -720 Descending Houston Center
08:12AM 30.0592 -95.6094 187° South 185 213 3,500 -900 Descending Houston Center
08:13AM 30.0414 -95.6111 185° South 195 224 3,100 -540 Descending Houston Center
08:13AM 30.0119 -95.5981 159° South 191 220 3,000 -120 Descending Houston Center
08:14AM 30.0042 -95.5769 113° Southeast 199 229 3,000  Level Houston Center
08:14AM 29.9942 -95.5397 107° East 183 211 3,000 -240 Level Houston Center
08:15AM 29.9922 -95.5208 97° East 189 217 2,800 -720 Descending Houston Center
08:15AM 29.9933 -95.4819 88° East 182 209 2,300 -840 Descending Houston Center
08:16AM 29.9931 -95.4636 91° East 181 208 2,000 -1,020 Descending Houston Center
08:16AM 29.9933 -95.4361 89° East 141 162 1,400 -1,260 Descending Houston Center